Time;durP1;ratioP1;P1;durP2;ratioP2;P2;SDS_P1;SDS_P2;PMS_P1;PMS_P2;Temp;Humidity;BMP_temperature;BMP_pressure;BME280_temperature;BME280_humidity;BME280_pressure;Samples;Min_cycle;Max_cycle;Signal;HPM_P1;HPM_P2
2023/09/16 00:00:45;;;;;;;6.40;5.82;;;22.70;59.80;;;;;;4981677;28;20227;-89
2023/09/16 00:03:12;;;;;;;5.90;5.40;;;22.70;60.00;;;;;;4997925;28;20685;-89
2023/09/16 00:05:39;;;;;;;5.90;5.40;;;22.70;60.30;;;;;;4997829;28;20221;-89
2023/09/16 00:08:07;;;;;;;6.40;5.85;;;22.70;60.20;;;;;;4997905;28;20205;-89
2023/09/16 00:10:35;;;;;;;6.63;5.72;;;22.70;60.20;;;;;;4997834;28;20687;-89
2023/09/16 00:13:02;;;;;;;6.13;5.53;;;22.70;60.30;;;;;;4998873;28;20254;-89
2023/09/16 00:15:29;;;;;;;6.75;6.22;;;22.70;60.30;;;;;;4997763;28;20204;-89
2023/09/16 00:17:56;;;;;;;6.60;6.00;;;22.60;60.10;;;;;;4997652;28;20204;-89
2023/09/16 00:20:25;;;;;;;5.85;5.38;;;22.60;60.10;;;;;;4982338;28;20679;-89
2023/09/16 00:22:52;;;;;;;6.20;5.70;;;22.60;60.10;;;;;;4997649;28;20200;-89
2023/09/16 00:25:21;;;;;;;6.55;5.95;;;22.60;60.00;;;;;;4998190;28;20612;-89
2023/09/16 00:27:48;;;;;;;6.00;5.50;;;22.60;59.90;;;;;;4999874;28;20679;-89
2023/09/16 00:30:16;;;;;;;6.00;5.50;;;22.60;60.00;;;;;;4983271;28;20304;-89
2023/09/16 00:32:43;;;;;;;6.32;5.82;;;22.60;60.00;;;;;;4997789;28;20227;-89
2023/09/16 00:35:10;;;;;;;6.03;5.53;;;22.60;60.00;;;;;;4997509;28;20640;-89
2023/09/16 00:37:38;;;;;;;6.43;5.93;;;22.60;59.90;;;;;;4997758;28;20251;-89
2023/09/16 00:40:07;;;;;;;6.50;5.97;;;22.60;59.90;;;;;;5000184;28;20224;-89
2023/09/16 00:42:38;;;;;;;6.35;5.85;;;22.50;59.90;;;;;;4981461;28;20201;-89
2023/09/16 00:45:10;;;;;;;6.30;5.80;;;22.60;60.00;;;;;;4997995;28;20213;-89
2023/09/16 00:47:37;;;;;;;6.20;5.70;;;22.50;59.90;;;;;;4997441;28;20216;-89
2023/09/16 00:50:06;;;;;;;6.05;5.47;;;22.50;59.80;;;;;;4997284;28;20223;-89
2023/09/16 00:52:33;;;;;;;6.38;5.78;;;22.50;59.80;;;;;;4998066;28;20280;-89
2023/09/16 00:55:00;;;;;;;6.70;5.90;;;22.50;59.80;;;;;;4998843;28;20212;-89
2023/09/16 00:57:27;;;;;;;6.90;6.20;;;22.50;59.90;;;;;;4981146;28;20210;-89
2023/09/16 00:59:56;;;;;;;6.55;5.85;;;22.50;59.90;;;;;;4997128;28;20609;-89
2023/09/16 01:02:23;;;;;;;6.32;5.82;;;22.50;59.80;;;;;;4997915;28;20192;-89
2023/09/16 01:04:50;;;;;;;6.60;6.00;;;22.50;59.80;;;;;;5022722;23;20714;-79
2023/09/16 01:07:17;;;;;;;7.00;6.32;;;22.50;59.90;;;;;;4996808;28;20205;-79
2023/09/16 01:09:44;;;;;;;6.65;6.05;;;22.50;59.70;;;;;;4998650;28;20567;-79
2023/09/16 01:12:11;;;;;;;6.38;5.78;;;22.50;59.70;;;;;;4993581;28;20216;-79
2023/09/16 01:14:38;;;;;;;6.57;5.97;;;22.50;59.80;;;;;;4993404;28;20201;-79
2023/09/16 01:17:09;;;;;;;6.70;6.10;;;22.50;59.70;;;;;;4993621;28;20205;-79
2023/09/16 01:19:41;;;;;;;6.00;5.40;;;22.40;59.70;;;;;;4993170;28;20229;-79
2023/09/16 01:22:09;;;;;;;6.13;5.63;;;22.50;59.70;;;;;;4993324;28;20197;-79
2023/09/16 01:24:35;;;;;;;6.75;6.15;;;22.40;59.80;;;;;;4993263;28;20190;-79
2023/09/16 01:27:04;;;;;;;5.97;5.47;;;22.40;59.80;;;;;;4993215;28;20621;-79
2023/09/16 01:29:31;;;;;;;6.28;5.68;;;22.40;59.80;;;;;;4993386;28;20696;-78
2023/09/16 01:32:06;;;;;;;6.20;5.70;;;22.40;59.70;;;;;;4993603;28;20652;-78
2023/09/16 01:34:36;;;;;;;5.32;4.93;;;22.40;59.80;;;;;;4993447;28;20193;-78
2023/09/16 01:37:04;;;;;;;6.18;5.68;;;22.40;59.80;;;;;;4993403;28;20200;-78
2023/09/16 01:39:32;;;;;;;6.38;5.88;;;22.40;59.70;;;;;;4993058;28;20225;-78
2023/09/16 01:41:59;;;;;;;6.57;5.97;;;22.40;59.70;;;;;;4996955;28;20201;-78
2023/09/16 01:44:27;;;;;;;6.45;5.93;;;22.40;59.80;;;;;;4997167;28;20668;-78
2023/09/16 01:46:55;;;;;;;6.43;5.82;;;22.30;59.60;;;;;;4997257;28;20304;-78
2023/09/16 01:49:22;;;;;;;6.60;6.00;;;22.40;59.60;;;;;;4997017;28;20217;-78
2023/09/16 01:51:49;;;;;;;6.68;5.80;;;22.30;59.50;;;;;;4997219;28;20194;-78
2023/09/16 01:54:16;;;;;;;6.18;5.68;;;22.30;59.50;;;;;;4997110;28;20210;-78
2023/09/16 01:56:45;;;;;;;6.47;5.88;;;22.40;59.60;;;;;;4996897;28;20205;-78
2023/09/16 01:59:12;;;;;;;6.43;5.80;;;22.30;59.60;;;;;;4980943;28;20225;-78
2023/09/16 02:01:40;;;;;;;6.32;5.82;;;22.30;59.60;;;;;;4996798;28;20201;-78
2023/09/16 02:04:08;;;;;;;6.65;6.10;;;22.30;59.60;;;;;;4996904;28;20204;-78
2023/09/16 02:06:35;;;;;;;6.30;5.80;;;22.30;59.70;;;;;;4980599;28;20283;-78
2023/09/16 02:09:03;;;;;;;6.65;6.05;;;22.20;59.50;;;;;;4997390;28;20291;-78
2023/09/16 02:11:31;;;;;;;6.53;5.93;;;22.30;59.60;;;;;;4996737;28;20225;-78
2023/09/16 02:13:59;;;;;;;5.85;5.35;;;22.30;59.70;;;;;;4996991;28;20228;-78
2023/09/16 02:16:25;;;;;;;6.70;6.10;;;22.30;59.50;;;;;;4996563;28;20194;-78
2023/09/16 02:18:54;;;;;;;6.50;6.00;;;22.20;59.50;;;;;;4997263;28;20219;-78
2023/09/16 02:21:22;;;;;;;6.13;5.65;;;22.30;59.60;;;;;;4996730;28;20198;-78
2023/09/16 02:23:49;;;;;;;6.25;5.75;;;22.20;59.50;;;;;;4997362;28;20668;-78
2023/09/16 02:26:15;;;;;;;6.30;5.70;;;22.20;60.20;;;;;;4996540;28;20580;-78
2023/09/16 02:28:43;;;;;;;6.05;5.55;;;22.20;59.50;;;;;;4996363;28;20197;-78
2023/09/16 02:31:11;;;;;;;6.43;5.82;;;22.20;59.50;;;;;;4996529;28;20215;-78
2023/09/16 02:33:37;;;;;;;6.13;5.63;;;22.20;59.40;;;;;;4996144;28;20205;-78
2023/09/16 02:36:06;;;;;;;6.30;5.80;;;22.20;59.50;;;;;;4996230;28;20213;-78
2023/09/16 02:38:33;;;;;;;6.57;5.97;;;22.20;59.50;;;;;;4996060;28;20201;-78
2023/09/16 02:41:03;;;;;;;6.50;5.95;;;22.20;59.60;;;;;;4996053;28;20264;-78
2023/09/16 02:43:31;;;;;;;6.07;5.57;;;22.20;59.50;;;;;;4995983;28;20268;-78
2023/09/16 02:45:58;;;;;;;6.45;5.95;;;22.20;59.50;;;;;;4995925;28;20217;-78
2023/09/16 02:48:25;;;;;;;5.93;5.43;;;22.20;59.50;;;;;;4995977;28;20633;-78
2023/09/16 02:50:52;;;;;;;6.20;5.70;;;22.10;59.40;;;;;;4995744;28;20214;-78
2023/09/16 02:53:21;;;;;;;6.65;6.10;;;22.10;59.50;;;;;;4995986;28;20193;-78
2023/09/16 02:55:48;;;;;;;6.03;5.50;;;22.10;59.40;;;;;;4996064;28;20545;-78
2023/09/16 02:58:16;;;;;;;6.43;5.72;;;22.10;59.40;;;;;;4979819;28;20197;-78
2023/09/16 03:00:46;;;;;;;6.20;5.68;;;22.10;59.40;;;;;;4979771;28;20245;-78
2023/09/16 03:03:13;;;;;;;6.75;6.05;;;22.10;59.30;;;;;;4979922;28;20190;-78
2023/09/16 03:05:41;;;;;;;6.40;5.90;;;22.10;59.40;;;;;;4995555;28;20566;-78
2023/09/16 03:08:10;;;;;;;6.35;5.85;;;22.10;59.30;;;;;;4995647;28;20193;-78
2023/09/16 03:10:38;;;;;;;6.47;5.90;;;22.10;59.20;;;;;;4995596;28;20221;-78
2023/09/16 03:13:05;;;;;;;6.35;5.75;;;22.10;59.20;;;;;;4995791;28;20205;-78
2023/09/16 03:15:35;;;;;;;6.43;5.82;;;22.10;59.10;;;;;;4995493;28;20288;-79
2023/09/16 03:18:03;;;;;;;5.75;5.28;;;22.10;59.10;;;;;;4995603;28;20201;-79
2023/09/16 03:20:30;;;;;;;6.03;5.50;;;22.10;59.10;;;;;;4995535;28;20696;-79
2023/09/16 03:22:57;;;;;;;6.18;5.68;;;22.10;59.10;;;;;;4995259;28;20194;-79
2023/09/16 03:25:25;;;;;;;6.00;5.50;;;22.20;59.10;;;;;;4980284;28;20383;-77
2023/09/16 03:27:54;;;;;;;5.97;5.53;;;22.20;59.00;;;;;;4995228;28;20197;-77
2023/09/16 03:30:21;;;;;;;6.15;5.55;;;22.20;58.90;;;;;;4995108;28;20217;-77
2023/09/16 03:32:48;;;;;;;5.97;5.47;;;22.20;58.80;;;;;;4995284;28;20201;-77
2023/09/16 03:35:16;;;;;;;6.78;6.07;;;22.20;58.40;;;;;;4995133;28;20201;-77
2023/09/16 03:37:44;;;;;;;6.20;5.70;;;22.30;58.60;;;;;;4995439;28;20197;-77
2023/09/16 03:40:12;;;;;;;6.30;5.68;;;22.30;58.50;;;;;;4995068;28;20225;-77
2023/09/16 03:42:39;;;;;;;5.65;5.25;;;22.30;58.30;;;;;;4994986;28;20652;-77
2023/09/16 03:45:08;;;;;;;5.95;5.45;;;22.30;58.20;;;;;;4994954;28;20229;-77
2023/09/16 03:47:35;;;;;;;5.68;5.18;;;22.30;58.30;;;;;;4994932;28;20232;-77
2023/09/16 03:50:02;;;;;;;6.15;5.65;;;22.30;58.10;;;;;;4995359;28;20291;-77
2023/09/16 03:52:29;;;;;;;6.00;5.50;;;22.30;58.10;;;;;;4994913;28;20220;-77
2023/09/16 03:54:57;;;;;;;5.60;5.20;;;22.30;58.00;;;;;;4994665;28;20223;-77
2023/09/16 03:57:23;;;;;;;6.38;5.25;;;22.30;57.90;;;;;;4994707;28;20248;-77
2023/09/16 04:00:15;;;;;;;6.05;5.45;;;22.30;58.00;;;;;;4996092;28;20360;-77
2023/09/16 04:02:44;;;;;;;6.28;5.68;;;22.40;57.90;;;;;;4994318;28;20190;-77
2023/09/16 04:05:11;;;;;;;6.53;5.70;;;22.30;57.80;;;;;;5003398;28;20201;-77
2023/09/16 04:07:39;;;;;;;5.18;4.68;;;22.30;57.90;;;;;;4994799;28;20209;-77
2023/09/16 04:10:07;;;;;;;5.70;5.20;;;22.30;57.80;;;;;;4978944;28;20213;-77
2023/09/16 04:12:34;;;;;;;6.13;5.63;;;22.30;57.70;;;;;;4979110;28;20625;-77
2023/09/16 04:15:01;;;;;;;5.45;4.90;;;22.30;57.80;;;;;;4995011;28;20193;-77
2023/09/16 04:17:29;;;;;;;6.13;5.63;;;22.30;57.80;;;;;;4994568;28;20198;-78
2023/09/16 04:19:56;;;;;;;5.93;5.47;;;22.30;57.90;;;;;;4995975;28;20249;-78
2023/09/16 04:22:23;;;;;;;6.13;5.63;;;22.30;57.90;;;;;;4998301;28;20204;-78
2023/09/16 04:24:51;;;;;;;5.68;5.15;;;22.30;57.80;;;;;;5011707;28;20205;-78
2023/09/16 04:27:18;;;;;;;6.07;5.47;;;22.30;57.80;;;;;;5018860;28;20201;-80
2023/09/16 04:29:45;;;;;;;6.38;5.70;;;22.30;57.30;;;;;;5003510;28;20201;-80
2023/09/16 04:32:12;;;;;;;6.15;5.65;;;22.30;57.40;;;;;;5019884;28;20190;-80
2023/09/16 04:34:41;;;;;;;6.28;5.78;;;22.30;57.90;;;;;;5019239;28;20256;-80
2023/09/16 04:37:09;;;;;;;6.03;5.53;;;22.20;57.70;;;;;;4979003;28;20198;-80
2023/09/16 04:39:36;;;;;;;6.55;5.95;;;22.20;57.50;;;;;;5010140;28;20213;-80
2023/09/16 04:42:04;;;;;;;6.80;5.85;;;22.20;57.60;;;;;;4993480;28;20197;-80
2023/09/16 04:44:38;;;;;;;6.07;5.60;;;22.20;57.80;;;;;;4993960;28;20248;-80
2023/09/16 04:47:07;;;;;;;5.90;5.30;;;22.20;57.80;;;;;;4980996;28;20212;-80
2023/09/16 04:49:35;;;;;;;6.80;6.20;;;22.10;57.50;;;;;;4993501;28;20228;-80
2023/09/16 04:52:04;;;;;;;6.60;6.00;;;22.10;56.70;;;;;;4993428;28;20197;-80
2023/09/16 04:54:32;;;;;;;6.68;6.07;;;22.10;56.60;;;;;;4993982;28;20256;-80
2023/09/16 04:57:00;;;;;;;6.68;6.07;;;22.00;56.30;;;;;;4993884;28;20652;-80
2023/09/16 04:59:32;;;;;;;7.60;6.90;;;22.00;56.20;;;;;;4993577;28;20718;-80
2023/09/16 05:02:03;;;;;;;6.63;6.03;;;22.00;56.20;;;;;;4978609;28;20205;-80
2023/09/16 05:04:30;;;;;;;7.32;6.65;;;21.90;56.10;;;;;;4994187;28;20215;-80
2023/09/16 05:06:57;;;;;;;7.32;6.70;;;21.90;56.10;;;;;;4993596;28;20218;-80
2023/09/16 05:09:27;;;;;;;7.63;6.78;;;21.90;56.10;;;;;;4993697;28;20252;-80
2023/09/16 05:11:54;;;;;;;7.05;6.43;;;21.80;56.00;;;;;;4993846;28;20209;-80
2023/09/16 05:14:22;;;;;;;7.57;6.78;;;21.90;56.20;;;;;;4993510;28;20201;-80
2023/09/16 05:16:49;;;;;;;7.63;6.80;;;21.80;56.00;;;;;;4993322;28;20197;-80
2023/09/16 05:19:16;;;;;;;7.20;6.50;;;21.70;56.20;;;;;;4993423;28;20648;-80
2023/09/16 05:21:43;;;;;;;6.95;6.35;;;21.80;56.30;;;;;;4993523;28;20197;-80
2023/09/16 05:24:10;;;;;;;6.80;6.20;;;21.70;56.50;;;;;;4993473;28;20193;-79
2023/09/16 05:26:39;;;;;;;6.50;5.72;;;21.80;56.90;;;;;;4993366;28;20595;-80
2023/09/16 05:29:06;;;;;;;6.53;5.93;;;21.70;57.00;;;;;;4993329;28;20239;-79
2023/09/16 05:31:35;;;;;;;6.72;6.05;;;21.70;57.10;;;;;;4993689;28;20200;-79
2023/09/16 05:34:01;;;;;;;6.55;6.03;;;21.70;57.10;;;;;;4993619;28;20714;-79
2023/09/16 05:36:28;;;;;;;6.63;5.88;;;21.70;57.30;;;;;;4993663;28;20245;-79
2023/09/16 05:38:57;;;;;;;6.95;6.22;;;21.70;57.30;;;;;;4993292;28;20205;-79
2023/09/16 05:41:24;;;;;;;6.43;5.75;;;21.70;57.40;;;;;;4993382;28;20221;-81
2023/09/16 05:43:52;;;;;;;5.82;5.32;;;21.70;57.40;;;;;;4993622;28;20596;-79
2023/09/16 05:46:20;;;;;;;6.00;5.40;;;21.70;57.50;;;;;;4993163;28;20213;-79
2023/09/16 05:48:47;;;;;;;6.00;5.38;;;21.70;57.80;;;;;;4990635;28;20209;-79
2023/09/16 05:51:14;;;;;;;6.25;5.65;;;21.80;58.20;;;;;;4991198;28;20213;-79
2023/09/16 05:53:41;;;;;;;6.32;5.72;;;21.70;58.00;;;;;;4991555;28;20197;-79
2023/09/16 05:56:09;;;;;;;5.72;5.22;;;21.70;58.10;;;;;;4993253;28;20200;-79
2023/09/16 05:58:46;;;;;;;5.45;5.03;;;21.80;58.20;;;;;;4993520;28;20196;-79
2023/09/16 06:01:18;;;;;;;5.97;5.47;;;21.80;58.20;;;;;;4977636;28;20228;-79
2023/09/16 06:03:45;;;;;;;5.97;5.47;;;21.80;58.20;;;;;;4993129;28;20263;-79
2023/09/16 06:06:12;;;;;;;5.97;5.40;;;21.80;58.10;;;;;;4993239;28;20541;-79
2023/09/16 06:08:40;;;;;;;6.43;5.93;;;21.80;58.10;;;;;;4994043;28;20256;-79
2023/09/16 06:11:07;;;;;;;5.72;5.32;;;21.90;58.20;;;;;;4994832;28;20205;-79
2023/09/16 06:13:34;;;;;;;5.57;5.07;;;21.90;58.10;;;;;;4993708;28;20564;-79
2023/09/16 06:16:01;;;;;;;5.85;5.35;;;22.00;58.00;;;;;;4993110;28;20284;-79
2023/09/16 06:18:30;;;;;;;5.57;5.15;;;22.00;58.00;;;;;;4993141;28;20193;-79
2023/09/16 06:20:58;;;;;;;6.15;5.55;;;22.00;57.90;;;;;;4993083;28;20633;-79
2023/09/16 06:23:25;;;;;;;5.68;5.18;;;22.10;57.80;;;;;;4993080;28;20563;-79
2023/09/16 06:25:53;;;;;;;5.95;5.38;;;22.10;57.80;;;;;;4993074;28;20260;-79
2023/09/16 06:28:21;;;;;;;6.00;5.50;;;22.10;57.80;;;;;;4996640;28;20221;-79
2023/09/16 06:30:48;;;;;;;5.70;5.20;;;22.20;57.80;;;;;;4996437;28;20218;-79
2023/09/16 06:33:15;;;;;;;5.53;5.03;;;22.20;57.60;;;;;;4996518;28;20193;-79
2023/09/16 06:35:44;;;;;;;5.85;5.35;;;22.20;57.50;;;;;;4996528;28;20205;-79
2023/09/16 06:38:11;;;;;;;5.82;5.32;;;22.30;57.60;;;;;;4980561;28;20212;-79
2023/09/16 06:40:38;;;;;;;6.10;5.60;;;22.30;57.50;;;;;;4996628;28;20754;-79
2023/09/16 06:43:06;;;;;;;6.07;5.50;;;22.40;57.60;;;;;;4996401;28;20293;-79
2023/09/16 06:45:38;;;;;;;6.28;5.78;;;22.30;57.50;;;;;;4997259;28;20205;-79
2023/09/16 06:48:08;;;;;;;5.80;5.28;;;22.30;57.40;;;;;;4996413;28;20241;-79
2023/09/16 06:50:35;;;;;;;5.88;5.28;;;22.40;57.50;;;;;;4996397;28;20221;-79
2023/09/16 06:53:04;;;;;;;5.90;5.40;;;22.40;57.50;;;;;;4996758;28;20204;-79
2023/09/16 06:55:31;;;;;;;5.70;5.20;;;22.40;57.40;;;;;;4980426;28;20283;-79
2023/09/16 06:57:58;;;;;;;6.13;5.53;;;22.50;57.30;;;;;;4995899;28;20248;-79
2023/09/16 07:00:25;;;;;;;6.13;5.63;;;22.60;57.20;;;;;;4997263;28;20586;-79
2023/09/16 07:05:52;;;;;;;6.75;6.15;;;23.10;56.40;;;;;;4977056;28;20247;-81
2023/09/16 07:08:21;;;;;;;5.80;5.30;;;23.40;55.90;;;;;;4976940;28;20265;-81
2023/09/16 07:10:47;;;;;;;6.13;5.53;;;23.60;55.30;;;;;;4993687;28;20217;-81
2023/09/16 07:13:15;;;;;;;6.20;5.70;;;23.80;54.80;;;;;;4980269;28;20197;-81
2023/09/16 07:15:42;;;;;;;5.40;5.00;;;23.90;54.30;;;;;;4996248;28;20645;-81
2023/09/16 07:18:09;;;;;;;5.78;5.32;;;24.20;54.00;;;;;;4995907;28;20261;-81
2023/09/16 07:20:36;;;;;;;6.15;5.65;;;24.30;53.70;;;;;;4995926;28;20213;-81
2023/09/16 07:23:04;;;;;;;5.82;5.32;;;24.50;53.50;;;;;;4995788;28;20202;-81
2023/09/16 07:25:32;;;;;;;5.63;5.22;;;24.60;53.80;;;;;;4996582;28;20664;-81
2023/09/16 07:28:00;;;;;;;5.47;5.07;;;24.70;53.10;;;;;;4980316;28;20627;-81
2023/09/16 07:30:28;;;;;;;5.90;5.40;;;24.90;53.00;;;;;;4995707;28;20312;-81
2023/09/16 07:32:54;;;;;;;6.18;5.68;;;25.00;52.70;;;;;;4996636;28;20193;-81
2023/09/16 07:35:22;;;;;;;5.93;5.50;;;25.10;52.50;;;;;;4997955;28;20194;-81
2023/09/16 07:37:48;;;;;;;5.70;5.30;;;25.10;52.20;;;;;;4998645;28;20186;-82
2023/09/16 07:40:16;;;;;;;5.47;4.95;;;25.20;52.10;;;;;;5000289;28;20220;-81
2023/09/16 07:42:44;;;;;;;6.10;5.50;;;25.30;51.90;;;;;;4996669;28;20660;-81
2023/09/16 07:45:11;;;;;;;5.38;4.97;;;25.40;51.80;;;;;;4995491;28;20204;-81
2023/09/16 07:47:38;;;;;;;5.53;5.03;;;25.50;51.60;;;;;;4996281;28;20221;-81
2023/09/16 07:50:07;;;;;;;5.43;5.03;;;25.60;51.50;;;;;;4997444;28;20221;-81
2023/09/16 07:52:33;;;;;;;5.72;5.15;;;25.60;51.20;;;;;;4997716;28;20197;-81
2023/09/16 07:55:01;;;;;;;5.70;5.20;;;25.70;51.20;;;;;;4996245;28;20200;-81
2023/09/16 07:57:29;;;;;;;5.35;4.95;;;25.80;51.10;;;;;;4996036;28;20324;-81
2023/09/16 07:59:57;;;;;;;5.25;4.85;;;25.80;50.90;;;;;;4997008;28;20217;-81
2023/09/16 08:02:24;;;;;;;5.22;4.82;;;25.90;50.80;;;;;;4997320;28;20197;-81
2023/09/16 08:04:51;;;;;;;5.40;4.95;;;25.90;50.60;;;;;;4996469;28;20661;-81
2023/09/16 08:07:18;;;;;;;5.60;5.10;;;26.00;50.40;;;;;;4996770;28;20271;-80
2023/09/16 08:09:45;;;;;;;5.53;5.13;;;26.10;50.40;;;;;;4996871;28;20221;-81
2023/09/16 08:12:12;;;;;;;5.43;5.03;;;26.10;50.40;;;;;;4997563;28;20193;-81
2023/09/16 08:14:40;;;;;;;5.32;4.93;;;26.20;50.40;;;;;;4997127;28;20216;-81
2023/09/16 08:17:08;;;;;;;5.18;4.78;;;26.20;50.10;;;;;;4998650;28;20321;-81
2023/09/16 08:19:35;;;;;;;5.20;4.80;;;26.30;50.00;;;;;;5003422;28;20221;-81
2023/09/16 08:22:02;;;;;;;5.00;4.60;;;26.30;49.80;;;;;;5003535;28;20201;-81
2023/09/16 08:24:30;;;;;;;5.32;4.88;;;26.40;49.70;;;;;;5003208;28;20264;-81
2023/09/16 08:26:56;;;;;;;5.13;4.72;;;26.50;49.70;;;;;;5002817;28;20232;-81
2023/09/16 08:29:24;;;;;;;4.90;4.50;;;26.50;49.70;;;;;;5003558;28;20594;-82
2023/09/16 08:31:51;;;;;;;5.07;4.68;;;26.50;49.60;;;;;;5003883;28;20200;-81
2023/09/16 08:34:19;;;;;;;4.75;4.35;;;26.50;49.50;;;;;;5003794;28;20209;-81
2023/09/16 08:36:46;;;;;;;5.07;4.68;;;26.60;49.40;;;;;;5004086;28;20204;-82
2023/09/16 08:39:14;;;;;;;4.30;4.00;;;26.70;49.40;;;;;;4998327;28;20256;-81
2023/09/16 08:41:43;;;;;;;4.57;4.28;;;26.60;49.20;;;;;;4994985;28;20227;-81
2023/09/16 08:44:10;;;;;;;4.85;4.45;;;26.70;49.10;;;;;;4998779;28;20229;-81
2023/09/16 08:46:42;;;;;;;4.80;4.40;;;26.80;49.10;;;;;;4994446;28;20604;-81
2023/09/16 08:49:10;;;;;;;4.95;4.55;;;26.80;48.90;;;;;;4994030;28;20704;-81
2023/09/16 08:51:39;;;;;;;5.03;4.53;;;26.80;48.80;;;;;;4997505;28;20272;-81
2023/09/16 08:54:07;;;;;;;4.75;4.40;;;26.90;48.70;;;;;;5003679;28;20699;-81
2023/09/16 08:56:34;;;;;;;4.70;4.30;;;26.90;48.70;;;;;;5003158;28;20255;-81
2023/09/16 08:59:01;;;;;;;4.57;4.28;;;27.00;48.60;;;;;;5003614;28;20193;-81
2023/09/16 09:01:28;;;;;;;5.10;4.70;;;27.00;48.60;;;;;;5004177;28;20267;-81
2023/09/16 09:03:55;;;;;;;4.38;4.07;;;27.00;48.40;;;;;;5003752;28;20228;-81
2023/09/16 09:06:22;;;;;;;4.28;3.97;;;27.00;48.40;;;;;;4994405;28;20616;-81
2023/09/16 09:08:51;;;;;;;4.70;4.30;;;27.10;48.40;;;;;;4994217;28;20212;-80
2023/09/16 09:11:18;;;;;;;4.47;4.18;;;27.10;48.30;;;;;;4994486;28;20299;-81
2023/09/16 09:13:45;;;;;;;5.00;4.47;;;27.10;48.20;;;;;;4995423;28;20193;-81
2023/09/16 09:16:12;;;;;;;4.65;4.25;;;27.20;48.30;;;;;;4994035;28;20196;-81
2023/09/16 09:18:39;;;;;;;4.40;4.10;;;27.20;48.20;;;;;;4994426;28;20192;-81
2023/09/16 09:21:06;;;;;;;4.25;3.95;;;27.20;48.20;;;;;;4993961;28;20208;-81
2023/09/16 09:23:34;;;;;;;4.35;4.03;;;27.20;48.10;;;;;;4994153;28;20232;-81
2023/09/16 09:26:02;;;;;;;4.60;4.30;;;27.20;48.10;;;;;;4995004;28;20197;-80
2023/09/16 09:28:30;;;;;;;4.35;4.05;;;27.20;48.10;;;;;;4993564;28;20228;-81
2023/09/16 09:30:59;;;;;;;4.40;4.10;;;27.20;48.10;;;;;;4994098;28;20219;-81
2023/09/16 09:33:27;;;;;;;4.40;4.00;;;27.20;48.10;;;;;;4993700;28;20197;-81
2023/09/16 09:36:12;;;;;;;4.20;3.90;;;27.20;48.10;;;;;;4995603;28;20192;-81
2023/09/16 09:38:40;;;;;;;4.55;4.15;;;27.20;48.10;;;;;;4993350;28;20192;-81
2023/09/16 09:41:09;;;;;;;4.43;4.13;;;27.20;48.10;;;;;;4993622;28;20192;-81
2023/09/16 09:43:36;;;;;;;4.32;4.03;;;27.20;48.10;;;;;;4994472;28;20270;-81
2023/09/16 09:46:03;;;;;;;4.30;4.00;;;27.20;48.10;;;;;;4993671;28;20197;-81
2023/09/16 09:48:30;;;;;;;4.43;4.13;;;27.20;48.10;;;;;;4993909;28;20230;-81
2023/09/16 09:50:58;;;;;;;4.88;4.47;;;27.20;48.70;;;;;;4999985;28;20229;-82
2023/09/16 09:53:26;;;;;;;3.70;3.40;;;27.20;48.00;;;;;;5005414;28;20247;-82
2023/09/16 09:55:53;;;;;;;4.30;4.00;;;27.20;48.00;;;;;;5005828;28;20260;-81
2023/09/16 09:58:21;;;;;;;4.00;3.70;;;27.30;48.00;;;;;;5005439;28;20200;-82
2023/09/16 10:00:49;;;;;;;3.95;3.65;;;27.20;47.90;;;;;;5005134;28;20221;-81
2023/09/16 10:03:16;;;;;;;4.70;4.30;;;27.30;48.00;;;;;;4992352;28;20196;-81
2023/09/16 10:05:43;;;;;;;4.13;3.83;;;27.30;48.00;;;;;;5008336;28;20719;-81
2023/09/16 10:08:11;;;;;;;4.03;3.72;;;27.20;47.90;;;;;;4990778;28;20213;-82
2023/09/16 10:10:38;;;;;;;4.05;3.75;;;27.30;48.00;;;;;;5006731;28;20220;-82
2023/09/16 10:13:05;;;;;;;4.18;3.88;;;27.20;47.90;;;;;;5005655;28;20561;-81
2023/09/16 10:15:35;;;;;;;3.70;3.47;;;27.30;48.00;;;;;;5006086;28;20621;-81
2023/09/16 10:18:02;;;;;;;4.05;3.75;;;27.30;48.00;;;;;;5007002;28;20578;-82
2023/09/16 10:20:29;;;;;;;3.92;3.63;;;27.20;47.90;;;;;;5005192;28;20229;-81
2023/09/16 10:22:57;;;;;;;4.00;3.70;;;27.20;48.00;;;;;;5004355;28;20212;-81
2023/09/16 10:25:24;;;;;;;4.00;3.70;;;27.20;48.00;;;;;;5004929;28;20200;-81
2023/09/16 10:27:53;;;;;;;4.10;3.80;;;27.20;48.00;;;;;;5003516;28;20217;-81
2023/09/16 10:30:20;;;;;;;3.90;3.60;;;27.20;48.10;;;;;;4984940;28;20565;-81
2023/09/16 10:32:48;;;;;;;4.10;3.80;;;27.20;48.10;;;;;;4999098;28;20196;-81
2023/09/16 10:35:16;;;;;;;3.90;3.60;;;27.20;48.10;;;;;;4997515;28;20204;-81
2023/09/16 10:37:43;;;;;;;3.85;3.55;;;27.20;48.20;;;;;;4997067;28;20215;-81
2023/09/16 10:40:11;;;;;;;3.80;3.50;;;27.20;48.20;;;;;;4996995;28;20216;-81
2023/09/16 10:42:38;;;;;;;4.07;3.78;;;27.20;48.30;;;;;;4996762;28;20193;-81
2023/09/16 10:45:10;;;;;;;3.90;3.60;;;27.10;48.30;;;;;;4996798;28;20607;-81
2023/09/16 10:47:37;;;;;;;4.07;3.78;;;27.10;48.50;;;;;;4996520;28;20199;-79
2023/09/16 10:50:06;;;;;;;4.00;3.70;;;27.10;48.50;;;;;;4996747;28;20212;-80
2023/09/16 10:52:37;;;;;;;3.75;3.47;;;27.00;48.60;;;;;;4996558;28;20201;-80
2023/09/16 10:55:07;;;;;;;4.07;3.78;;;27.00;49.30;;;;;;4996451;28;20197;-80
2023/09/16 10:57:36;;;;;;;3.85;3.60;;;27.00;48.70;;;;;;4999363;28;20185;-80
2023/09/16 11:00:04;;;;;;;4.13;3.83;;;27.00;48.90;;;;;;4981418;28;20304;-80
2023/09/16 11:02:33;;;;;;;4.18;3.88;;;26.90;48.90;;;;;;4999041;28;20199;-80
2023/09/16 11:05:00;;;;;;;3.72;3.42;;;27.00;49.10;;;;;;4998149;28;20205;-80
2023/09/16 11:07:28;;;;;;;3.72;3.50;;;26.90;49.10;;;;;;4999059;28;20197;-80
2023/09/16 11:09:55;;;;;;;3.75;3.53;;;26.80;49.30;;;;;;4998035;28;20230;-80
2023/09/16 11:12:29;;;;;;;3.75;3.45;;;26.80;49.60;;;;;;4997743;28;20609;-80
2023/09/16 11:14:56;;;;;;;3.97;3.67;;;26.60;49.70;;;;;;4997100;28;20284;-79
2023/09/16 11:17:23;;;;;;;3.95;3.65;;;26.60;49.90;;;;;;4981415;28;20215;-81
2023/09/16 11:19:50;;;;;;;4.00;3.70;;;26.60;50.00;;;;;;4996509;28;20695;-81
2023/09/16 11:22:18;;;;;;;4.18;3.88;;;26.60;50.10;;;;;;4983345;28;20237;-81
2023/09/16 11:24:46;;;;;;;3.42;3.22;;;26.50;50.10;;;;;;4998786;28;20225;-81
2023/09/16 11:27:17;;;;;;;4.15;3.85;;;26.50;50.30;;;;;;4996326;28;20205;-81
2023/09/16 11:29:44;;;;;;;3.50;3.30;;;26.50;50.30;;;;;;4996268;28;20224;-80
2023/09/16 11:32:11;;;;;;;3.33;3.10;;;26.50;50.40;;;;;;4996331;28;20205;-81
2023/09/16 11:34:39;;;;;;;3.60;3.30;;;26.50;50.50;;;;;;4995829;28;20651;-81
2023/09/16 11:37:10;;;;;;;3.63;3.33;;;26.50;50.50;;;;;;4996031;28;20202;-81
2023/09/16 11:39:40;;;;;;;3.60;3.40;;;26.50;50.50;;;;;;4996691;28;20239;-81
2023/09/16 11:42:08;;;;;;;3.97;3.67;;;26.50;50.50;;;;;;4995724;28;20204;-81
2023/09/16 11:44:35;;;;;;;3.95;3.65;;;26.60;50.60;;;;;;4991228;28;20561;-81
2023/09/16 11:47:02;;;;;;;3.75;3.50;;;26.60;50.60;;;;;;4994008;28;20213;-81
2023/09/16 11:49:32;;;;;;;3.85;3.30;;;26.60;50.60;;;;;;4993342;28;20237;-81
2023/09/16 11:51:59;;;;;;;3.78;3.47;;;26.60;50.60;;;;;;4995361;28;20232;-80
2023/09/16 11:54:26;;;;;;;3.85;3.55;;;26.60;50.70;;;;;;4995692;28;20201;-80
2023/09/16 11:56:53;;;;;;;4.05;3.75;;;26.60;50.70;;;;;;4995246;28;20200;-81
2023/09/16 11:59:22;;;;;;;3.90;3.50;;;26.60;50.70;;;;;;4993817;28;20216;-80
2023/09/16 12:01:49;;;;;;;4.55;3.75;;;26.60;50.80;;;;;;4994844;28;20227;-80
2023/09/16 12:04:17;;;;;;;8.27;3.70;;;26.60;50.80;;;;;;4995156;28;20212;-80
2023/09/16 12:06:44;;;;;;;5.32;3.72;;;26.60;51.50;;;;;;4996735;28;20196;-80
2023/09/16 12:09:17;;;;;;;5.07;3.53;;;26.50;51.60;;;;;;4994752;28;20247;-80
2023/09/16 12:11:44;;;;;;;5.63;3.80;;;26.60;51.70;;;;;;4994727;28;20189;-80
2023/09/16 12:14:12;;;;;;;4.25;3.60;;;26.60;51.70;;;;;;4994655;28;20280;-80
2023/09/16 12:16:40;;;;;;;4.20;3.80;;;26.60;51.70;;;;;;4994567;28;20207;-80
2023/09/16 12:19:07;;;;;;;4.57;3.42;;;26.60;52.10;;;;;;4978739;28;20227;-81
2023/09/16 12:21:34;;;;;;;3.50;3.30;;;26.60;52.40;;;;;;4996163;28;20204;-80
2023/09/16 12:24:01;;;;;;;4.10;3.78;;;26.60;52.50;;;;;;4996863;28;20562;-81
2023/09/16 12:26:28;;;;;;;3.70;3.40;;;26.60;52.20;;;;;;4977362;28;20565;-81
2023/09/16 12:28:55;;;;;;;3.72;3.30;;;26.60;52.40;;;;;;4962471;28;20596;-81
2023/09/16 12:31:22;;;;;;;3.78;3.47;;;26.60;52.50;;;;;;4994246;28;20245;-81
2023/09/16 12:33:54;;;;;;;4.68;3.90;;;26.50;52.50;;;;;;4975773;28;20431;-80
2023/09/16 12:36:22;;;;;;;3.72;3.42;;;26.50;52.50;;;;;;4984135;28;20208;-79
2023/09/16 12:38:49;;;;;;;3.92;3.63;;;26.50;51.70;;;;;;4997155;28;20185;-80
2023/09/16 12:41:16;;;;;;;4.20;3.90;;;26.60;51.80;;;;;;4969669;28;20197;-83
2023/09/16 12:43:44;;;;;;;3.60;3.30;;;26.50;51.80;;;;;;4993589;28;20205;-83
2023/09/16 12:46:11;;;;;;;3.97;3.40;;;26.60;51.70;;;;;;4982282;28;20240;-80
2023/09/16 12:48:38;;;;;;;4.63;3.45;;;26.60;52.10;;;;;;4981674;28;20244;-80
2023/09/16 12:51:07;;;;;;;4.00;3.67;;;26.60;52.50;;;;;;4975228;28;20712;-79
2023/09/16 12:53:34;;;;;;;3.65;3.17;;;26.60;52.50;;;;;;4977595;28;20598;-80